Virginia Beach, VA (23465)

4:55 PM EST on January 26, 2015 (GMT -0500)
Kempsville | Change Station
CLOSE
Current Station
Personal Weather Station
Location: Virginia Beach, VA
Elevation: 20 ft
Nearby Weather Stations
Active Advisory: Winter Weather Advisory

Elev 20 ft 36.80 °N, 76.19 °W | Updated 1 second ago

Overcast
Overcast
45.2 °F
Feels Like 42 °F
N
6.0
Wind Variable Wind from NW
Gusts 15.0 mph

Today
High -- | Low -- °F
--% Chance of Precip.
Yesterday
High -- | Low -- °F
Precip. -- in
7:11 AM 5:23 PM
Waxing Crescent, 47% visible
Pressure 29.57 in
Visibility 8.0 miles
Clouds Overcast 1200 ft
Windchill 42 °F
Dew Point 42 °F
Humidity 89%
Rainfall 0.09 in
Snow Depth Not available.
UV 0 out of 12
Pollen .80 out of 12
Air Quality Not available.
Flu Activity Not available.
METAR KORF 262151Z 34010KT 8SM OVC012 07/03 A2957 RMK AO2 SLP013 VIRGA S-SW T00670033

More Conditions Fewer Conditions

Pressure 29.57 in
Visibility 8.0 miles
Clouds Overcast 1200 ft
Windchill 42 °F
Dew Point 42 °F
Humidity 89%
Rainfall 0.09 in
Snow Depth Not available.
UV 0 out of 12
Pollen .80 out of 12
Air Quality Not available.
Flu Activity Not available.
METAR KORF 262151Z 34010KT 8SM OVC012 07/03 A2957 RMK AO2 SLP013 VIRGA S-SW T00670033

More Conditions Fewer Conditions

10-Day Weather Forecast

Almanac

Astronomy

Jan. 26, 2015 Rise Set
Actual Time
Civil Twilight
Nautical Twilight
Astronomical Twilight
Moon
Length of Visible Light
Length of Day
Tomorrow will be .
, % of the Moon is Illuminated

Today's Extremes

State Highs State Lows

Community

WunderPhotos

Upload Photos

1,790,370 photos uploaded!

WunderBlogs® & News

Nearby

Air Quality

  Air Quality AQ Index Pollutant
Not available.

Snow Depth

Station Depth Elevation

Earthquake Activity

City Distance Mag. Time & Date
Minimum magnitude displayed is 2.5.

Coastal Water Temperatures

Place Temperature

Nearby Weather Stations